Red Rock, Minnesota
Current Conditions -  °F | °C
As of 4:15 PM on Friday 24 Oct 2014 (Local Time) from KAUM Reporting Station
Haze Haze  
Wind Chill: 59°   Ceiling: 600
Heat Index: 59°   Visibility: 4mi
Dew Point: 57°   Wind: 5mph
Humidity: 94%   Direction: 180°S
Pressure: 29.87"   Gusts: NA
Location:  43.7188°N, 92.868°W
Report Text: KAUM 242115Z AUTO 18004KT 4SM BR OVC006 15/14 A2987 RMK AO2
Loading
Personal Weather Stations






























Interactive Weather Map
Tropical Storm Tracking
New forecast layout! Learn more

10-Day Weather Forecast

Advertisements
Track Severe Weather on mobile